createdAt,value
2022-08-14T00:04:34.208Z,995.05
2022-08-14T00:09:21.154Z,995.05
2022-08-14T00:14:20.105Z,995.02
2022-08-14T00:19:21.278Z,995.09
2022-08-14T00:24:28.440Z,995.05
2022-08-14T00:29:21.020Z,995.03
2022-08-14T00:34:37.634Z,994.99
2022-08-14T00:39:21.056Z,994.97
2022-08-14T00:44:21.522Z,994.94
2022-08-14T00:49:21.189Z,994.89
2022-08-14T00:54:21.718Z,994.91
2022-08-14T00:59:22.432Z,994.92
2022-08-14T01:04:51.577Z,994.77
2022-08-14T01:09:20.309Z,994.74
2022-08-14T01:14:28.585Z,994.73
2022-08-14T01:19:20.204Z,994.60
2022-08-14T01:24:30.646Z,994.63
2022-08-14T01:29:51.994Z,994.65
2022-08-14T01:35:21.222Z,994.68
2022-08-14T01:39:19.966Z,994.70
2022-08-14T01:44:32.528Z,994.66
2022-08-14T01:49:19.750Z,994.72
2022-08-14T01:54:18.758Z,994.75
2022-08-14T01:59:22.861Z,994.75
2022-08-14T02:04:54.775Z,994.70
2022-08-14T02:09:22.624Z,994.67
2022-08-14T02:14:31.446Z,994.60
2022-08-14T02:19:19.438Z,994.58
2022-08-14T02:24:38.880Z,994.58
2022-08-14T02:29:19.288Z,994.55
2022-08-14T02:34:22.275Z,994.39
2022-08-14T02:39:19.173Z,994.38
2022-08-14T02:44:21.659Z,994.44
2022-08-14T02:49:18.973Z,994.44
2022-08-14T02:54:19.719Z,994.46
2022-08-14T02:59:21.120Z,994.50
2022-08-14T03:04:20.546Z,994.35
2022-08-14T03:09:18.898Z,994.33
2022-08-14T03:14:18.074Z,994.39
2022-08-14T03:19:17.651Z,994.42
2022-08-14T03:24:22.903Z,994.38
2022-08-14T03:29:18.440Z,994.29
2022-08-14T03:34:24.266Z,994.26
2022-08-14T03:39:21.941Z,994.22
2022-08-14T03:45:20.037Z,994.19
2022-08-14T03:49:24.252Z,994.22
2022-08-14T03:54:20.552Z,994.27
2022-08-14T03:59:20.177Z,994.12
2022-08-14T04:04:16.941Z,994.04
2022-08-14T04:09:17.002Z,994.04
2022-08-14T04:14:16.841Z,994.10
2022-08-14T04:19:17.517Z,994.06
2022-08-14T04:24:16.692Z,994.00
2022-08-14T04:29:16.834Z,993.92
2022-08-14T04:34:20.546Z,993.87
2022-08-14T04:39:17.602Z,993.86
2022-08-14T04:44:26.715Z,993.87
2022-08-14T04:49:17.390Z,993.76
2022-08-14T04:54:16.629Z,993.72
2022-08-14T04:59:19.280Z,993.56
2022-08-14T05:04:20.221Z,993.51
2022-08-14T05:09:16.170Z,993.40
2022-08-14T05:14:46.729Z,993.44
2022-08-14T05:19:26.804Z,993.45
2022-08-14T05:24:17.716Z,993.38
2022-08-14T05:29:15.926Z,993.32
2022-08-14T05:34:16.097Z,993.30
2022-08-14T05:39:15.835Z,993.31
2022-08-14T05:44:15.631Z,993.22
2022-08-14T05:49:15.587Z,993.03
2022-08-14T05:54:26.800Z,992.99
2022-08-14T05:59:19.493Z,992.97
2022-08-14T06:04:16.508Z,992.94
2022-08-14T06:09:15.323Z,992.92
2022-08-14T06:14:21.541Z,992.93
2022-08-14T06:19:18.353Z,992.88
2022-08-14T06:24:18.591Z,992.84
2022-08-14T06:29:15.108Z,992.75
2022-08-14T06:35:04.825Z,992.68
2022-08-14T06:39:17.221Z,992.49
2022-08-14T06:44:15.098Z,992.44
2022-08-14T06:49:15.089Z,992.40
2022-08-14T06:54:14.680Z,992.35
2022-08-14T06:59:19.954Z,992.33
2022-08-14T07:04:23.223Z,992.33
2022-08-14T07:09:22.455Z,992.33
2022-08-14T07:14:15.437Z,992.28
2022-08-14T07:19:14.460Z,992.19
2022-08-14T07:24:26.495Z,992.17
2022-08-14T07:29:15.611Z,992.18
2022-08-14T07:34:36.646Z,992.08
2022-08-14T07:39:15.310Z,992.12
2022-08-14T07:44:32.685Z,992.03
2022-08-14T07:49:17.567Z,991.98
2022-08-14T07:54:16.522Z,991.91
2022-08-14T07:59:18.703Z,991.90
2022-08-14T08:04:18.627Z,991.90
2022-08-14T08:09:14.865Z,991.91
2022-08-14T08:14:17.422Z,991.84
2022-08-14T08:19:14.303Z,991.67
2022-08-14T08:24:18.314Z,991.80
2022-08-14T08:29:14.783Z,991.82
2022-08-14T08:34:14.398Z,991.75
2022-08-14T08:39:14.512Z,991.75
2022-08-14T08:44:17.495Z,991.67
2022-08-14T08:49:14.425Z,991.58
2022-08-14T08:54:18.588Z,991.51
2022-08-14T08:59:17.196Z,991.50
2022-08-14T09:04:14.750Z,991.37
2022-08-14T09:09:13.228Z,991.32
2022-08-14T09:14:13.091Z,991.37
2022-08-14T09:19:12.925Z,991.38
2022-08-14T09:24:28.183Z,991.36
2022-08-14T09:29:13.923Z,991.32
2022-08-14T09:34:27.301Z,991.25
2022-08-14T09:39:23.281Z,991.30
2022-08-14T09:44:13.758Z,991.33
2022-08-14T09:49:16.478Z,991.26
2022-08-14T09:54:18.102Z,991.18
2022-08-14T09:59:16.438Z,991.17
2022-08-14T10:04:14.469Z,990.95
2022-08-14T10:09:16.605Z,990.86
2022-08-14T10:14:12.297Z,990.80
2022-08-14T10:19:12.189Z,990.75
2022-08-14T10:24:12.248Z,990.68
2022-08-14T10:29:20.223Z,990.71
2022-08-14T10:34:14.222Z,990.64
2022-08-14T10:39:12.172Z,990.54
2022-08-14T10:44:21.592Z,990.52
2022-08-14T10:49:15.288Z,990.34
2022-08-14T10:54:25.868Z,990.25
2022-08-14T10:59:15.805Z,990.23
2022-08-14T11:04:11.747Z,990.16
2022-08-14T11:09:12.026Z,990.19
2022-08-14T11:14:12.653Z,990.14
2022-08-14T11:19:11.382Z,990.17
2022-08-14T11:24:50.755Z,990.09
2022-08-14T11:29:12.366Z,990.06
2022-08-14T11:34:30.207Z,990.00
2022-08-14T11:39:12.405Z,989.94
2022-08-14T11:44:17.549Z,989.83
2022-08-14T11:49:17.211Z,989.79
2022-08-14T11:54:12.128Z,989.83
2022-08-14T11:59:13.959Z,989.67
2022-08-14T12:04:32.273Z,989.51
2022-08-14T12:09:14.106Z,989.50
2022-08-14T12:14:29.284Z,989.51
2022-08-14T12:19:11.740Z,989.49
2022-08-14T12:24:36.270Z,989.36
2022-08-14T12:29:12.984Z,989.29
2022-08-14T12:34:10.641Z,989.41
2022-08-14T12:39:10.478Z,989.18
2022-08-14T12:44:10.251Z,988.95
2022-08-14T12:49:10.387Z,988.97
2022-08-14T12:54:18.560Z,988.83
2022-08-14T13:11:26.444Z,988.61
2022-08-14T13:15:59.468Z,988.56
2022-08-14T13:21:01.732Z,988.46
2022-08-14T13:25:59.358Z,988.45
2022-08-14T13:30:59.315Z,988.16
2022-08-14T13:35:59.231Z,988.23
2022-08-14T13:40:59.145Z,988.11
2022-08-14T13:46:01.284Z,988.01
2022-08-14T13:50:59.065Z,987.97
2022-08-14T13:55:58.990Z,987.98
2022-08-14T14:01:04.372Z,988.01
2022-08-14T14:05:58.748Z,987.89
2022-08-14T14:10:58.682Z,987.79
2022-08-14T14:15:59.001Z,987.78
2022-08-14T14:20:58.790Z,987.54
2022-08-14T14:25:58.546Z,987.51
2022-08-14T14:31:01.296Z,987.50
2022-08-14T14:35:59.665Z,987.52
2022-08-14T14:41:00.988Z,987.52
2022-08-14T14:45:58.228Z,987.43
2022-08-14T14:50:58.249Z,987.38
2022-08-14T14:56:49.836Z,987.47
2022-08-14T15:01:03.092Z,987.41
2022-08-14T15:05:58.948Z,987.31
2022-08-14T15:10:58.168Z,987.29
2022-08-14T15:15:57.783Z,987.28
2022-08-14T15:20:57.757Z,987.24
2022-08-14T15:25:57.828Z,987.14
2022-08-14T15:30:59.228Z,987.14
2022-08-14T15:35:59.297Z,987.03
2022-08-14T15:40:57.614Z,987.07
2022-08-14T15:45:57.410Z,986.98
2022-08-14T15:50:57.425Z,986.95
2022-08-14T15:55:57.311Z,986.86
2022-08-14T16:01:00.261Z,986.82
2022-08-14T16:05:57.625Z,986.77
2022-08-14T16:10:57.452Z,986.83
2022-08-14T16:15:57.400Z,986.72
2022-08-14T16:20:57.039Z,986.66
2022-08-14T16:25:57.177Z,986.65
2022-08-14T16:30:57.464Z,986.68
2022-08-14T16:36:00.638Z,986.63
2022-08-14T16:40:57.085Z,986.62
2022-08-14T16:45:56.714Z,986.60
2022-08-14T16:50:56.679Z,986.64
2022-08-14T16:55:57.566Z,986.73
2022-08-14T17:00:59.658Z,986.71
2022-08-14T17:05:57.490Z,986.71
2022-08-14T17:10:56.519Z,986.69
2022-08-14T17:15:56.272Z,986.60
2022-08-14T17:21:01.987Z,986.51
2022-08-14T17:25:57.452Z,986.50
2022-08-14T17:30:56.133Z,986.47
2022-08-14T17:35:58.216Z,986.49
2022-08-14T17:40:56.112Z,986.42
2022-08-14T17:45:56.037Z,986.47
2022-08-14T17:50:59.755Z,986.56
2022-08-14T17:56:03.336Z,986.60
2022-08-14T18:01:04.710Z,986.64
2022-08-14T18:06:07.457Z,986.77
2022-08-14T18:10:56.970Z,986.75
2022-08-14T18:15:55.562Z,986.76
2022-08-14T18:21:40.784Z,986.77
2022-08-14T18:25:56.444Z,986.81
2022-08-14T18:30:58.287Z,986.86
2022-08-14T18:35:59.809Z,986.89
2022-08-14T18:40:56.217Z,986.92
2022-08-14T18:45:55.280Z,986.98
2022-08-14T18:50:55.362Z,987.04
2022-08-14T18:55:55.060Z,987.08
2022-08-14T19:00:58.960Z,987.09
2022-08-14T19:05:54.985Z,987.11
2022-08-14T19:10:55.591Z,987.25
2022-08-14T19:15:56.282Z,987.19
2022-08-14T19:20:54.793Z,987.23
2022-08-14T19:25:54.745Z,987.24
2022-08-14T19:30:58.016Z,987.17
2022-08-14T19:35:56.017Z,987.22
2022-08-14T19:40:55.760Z,987.18
2022-08-14T19:45:54.440Z,987.18
2022-08-14T19:50:54.452Z,987.18
2022-08-14T19:55:54.280Z,987.14
2022-08-14T20:00:57.805Z,987.23
2022-08-14T20:05:57.378Z,987.18
2022-08-14T20:11:03.749Z,987.19
2022-08-14T20:15:55.101Z,987.14
2022-08-14T20:20:53.907Z,987.20
2022-08-14T20:25:57.287Z,987.27
2022-08-14T20:30:58.510Z,987.20
2022-08-14T20:35:53.855Z,987.23
2022-08-14T20:40:53.672Z,987.18
2022-08-14T20:45:53.769Z,987.12
2022-08-14T20:50:53.533Z,987.12
2022-08-14T20:55:53.665Z,987.13
2022-08-14T21:00:56.400Z,987.07
2022-08-14T21:05:56.730Z,987.02
2022-08-14T21:10:54.909Z,987.10
2022-08-14T21:15:57.306Z,987.16
2022-08-14T21:20:54.284Z,987.12
2022-08-14T21:25:53.041Z,987.12
2022-08-14T21:30:53.006Z,987.05
2022-08-14T21:35:54.815Z,987.06
2022-08-14T21:40:53.009Z,987.10
2022-08-14T21:45:53.954Z,987.17
2022-08-14T21:51:01.378Z,987.16
2022-08-14T21:55:53.734Z,987.19
2022-08-14T22:00:55.665Z,987.19
2022-08-14T22:05:52.610Z,987.14
2022-08-14T22:10:52.662Z,987.13
2022-08-14T22:15:56.645Z,987.02
2022-08-14T22:20:54.163Z,986.97
2022-08-14T22:25:52.452Z,986.92
2022-08-14T22:30:54.956Z,986.84
2022-08-14T22:35:56.304Z,986.82
2022-08-14T22:41:09.681Z,986.72
2022-08-14T22:45:55.223Z,986.63
2022-08-14T22:50:53.769Z,986.57
2022-08-14T22:55:52.537Z,986.58
2022-08-14T23:00:54.797Z,986.62
2022-08-14T23:05:54.550Z,986.53
2022-08-14T23:10:51.672Z,986.51
2022-08-14T23:15:51.627Z,986.44
2022-08-14T23:20:51.560Z,986.42
2022-08-14T23:25:59.957Z,986.47
2022-08-14T23:30:52.399Z,986.40
2022-08-14T23:35:59.348Z,986.38
2022-08-14T23:40:52.348Z,986.27
2022-08-14T23:45:51.171Z,986.19
2022-08-14T23:50:51.143Z,986.13
2022-08-14T23:55:57.024Z,986.12
